<?xml version="1.0" encoding="UTF-8" standalone="no" ?><gpx xmlns="http://www.topografix.com/GPX/1/1" xmlns:gpxx="http://www.garmin.com/xmlschemas/GpxExtensions/v3" xmlns:wptx1="http://www.garmin.com/xmlschemas/WaypointExtension/v1" xmlns:gpxtpx="http://www.garmin.com/xmlschemas/TrackPointExtension/v1" creator="Dakota 20" version="1.1" xmlns:xsi="http://www.w3.org/2001/XMLSchema-instance" xsi:schemaLocation="http://www.topografix.com/GPX/1/1 http://www.topografix.com/GPX/1/1/gpx.xsd http://www.garmin.com/xmlschemas/GpxExtensions/v3 http://www8.garmin.com/xmlschemas/GpxExtensionsv3.xsd http://www.garmin.com/xmlschemas/WaypointExtension/v1 http://www8.garmin.com/xmlschemas/WaypointExtensionv1.xsd http://www.garmin.com/xmlschemas/TrackPointExtension/v1 http://www.garmin.com/xmlschemas/TrackPointExtensionv1.xsd"><metadata><link href="http://www.garmin.com"><text>Garmin International</text></link><time>2014-03-26T15:27:38Z</time></metadata><trk><name>Current Track: 26 MAR 2014 09:59</name><extensions><gpxx:TrackExtension><gpxx:DisplayColor>Cyan</gpxx:DisplayColor></gpxx:TrackExtension></extensions><trkseg><trkpt lat="51.8761246093" lon="-1.8140450958"><ele>212.11</ele><time>2014-03-26T09:59:38Z</time></trkpt><trkpt lat="51.8761111144" lon="-1.8140453473"><ele>212.59</ele><time>2014-03-26T10:00:05Z</time></trkpt><trkpt lat="51.8761157244" lon="-1.8140689004"><ele>214.03</ele><time>2014-03-26T10:00:34Z</time></trkpt><trkpt lat="51.8761199154" lon="-1.8140886817"><ele>213.07</ele><time>2014-03-26T10:00:46Z</time></trkpt><trkpt lat="51.8761220109" lon="-1.8140849099"><ele>213.07</ele><time>2014-03-26T10:01:09Z</time></trkpt><trkpt lat="51.8762391061" lon="-1.8140667211"><ele>213.55</ele><time>2014-03-26T10:01:26Z</time></trkpt><trkpt lat="51.8763728812" lon="-1.8143040966"><ele>213.55</ele><time>2014-03-26T10:01:45Z</time></trkpt><trkpt lat="51.8765298743" lon="-1.8144385424"><ele>214.51</ele><time>2014-03-26T10:02:05Z</time></trkpt><trkpt lat="51.8765317183" lon="-1.8144335970"><ele>214.99</ele><time>2014-03-26T10:02:07Z</time></trkpt><trkpt lat="51.8766272720" lon="-1.8146485928"><ele>214.99</ele><time>2014-03-26T10:02:25Z</time></trkpt><trkpt lat="51.8767031282" lon="-1.8148210924"><ele>215.95</ele><time>2014-03-26T10:02:41Z</time></trkpt><trkpt lat="51.8767996877" lon="-1.8150811829"><ele>215.95</ele><time>2014-03-26T10:03:00Z</time></trkpt><trkpt lat="51.8768673297" lon="-1.8153928220"><ele>216.91</ele><time>2014-03-26T10:03:18Z</time></trkpt><trkpt lat="51.8768857699" lon="-1.8154458795"><ele>217.40</ele><time>2014-03-26T10:03:22Z</time></trkpt><trkpt lat="51.8770487979" lon="-1.8157258350"><ele>217.40</ele><time>2014-03-26T10:03:42Z</time></trkpt><trkpt lat="51.8771839980" lon="-1.8159136735"><ele>218.36</ele><time>2014-03-26T10:04:00Z</time></trkpt><trkpt lat="51.8772404082" lon="-1.8159451894"><ele>217.88</ele><time>2014-03-26T10:04:08Z</time></trkpt><trkpt lat="51.8773800507" lon="-1.8161626160"><ele>217.88</ele><time>2014-03-26T10:04:26Z</time></trkpt><trkpt lat="51.8774385564" lon="-1.8162764423"><ele>218.84</ele><time>2014-03-26T10:04:34Z</time></trkpt><trkpt lat="51.8775964715" lon="-1.8162787054"><ele>218.36</ele><time>2014-03-26T10:04:52Z</time></trkpt><trkpt lat="51.8777042627" lon="-1.8162203673"><ele>219.80</ele><time>2014-03-26T10:05:11Z</time></trkpt><trkpt lat="51.8777284026" lon="-1.8161941320"><ele>219.32</ele><time>2014-03-26T10:05:13Z</time></trkpt><trkpt lat="51.8778672069" lon="-1.8161431700"><ele>217.88</ele><time>2014-03-26T10:05:27Z</time></trkpt><trkpt lat="51.8778968789" lon="-1.8162857462"><ele>218.36</ele><time>2014-03-26T10:05:45Z</time></trkpt><trkpt lat="51.8779951148" lon="-1.8163631111"><ele>217.88</ele><time>2014-03-26T10:05:59Z</time></trkpt><trkpt lat="51.8782435544" lon="-1.8163590878"><ele>216.43</ele><time>2014-03-26T10:06:17Z</time></trkpt><trkpt lat="51.8785198219" lon="-1.8163996562"><ele>216.43</ele><time>2014-03-26T10:06:39Z</time></trkpt><trkpt lat="51.8787985202" lon="-1.8164569885"><ele>214.51</ele><time>2014-03-26T10:06:59Z</time></trkpt><trkpt lat="51.8790299445" lon="-1.8165010773"><ele>212.11</ele><time>2014-03-26T10:07:19Z</time></trkpt><trkpt lat="51.8792083114" lon="-1.8165378738"><ele>209.22</ele><time>2014-03-26T10:07:37Z</time></trkpt><trkpt lat="51.8794108182" lon="-1.8165423162"><ele>206.82</ele><time>2014-03-26T10:07:58Z</time></trkpt><trkpt lat="51.8795337807" lon="-1.8165874109"><ele>205.38</ele><time>2014-03-26T10:08:14Z</time></trkpt><trkpt lat="51.8796612695" lon="-1.8165890872"><ele>203.46</ele><time>2014-03-26T10:08:33Z</time></trkpt><trkpt lat="51.8796886783" lon="-1.8166018277"><ele>201.53</ele><time>2014-03-26T10:08:51Z</time></trkpt><trkpt lat="51.8798307516" lon="-1.8166309129"><ele>199.61</ele><time>2014-03-26T10:09:12Z</time></trkpt><trkpt lat="51.8799220305" lon="-1.8165688869"><ele>200.09</ele><time>2014-03-26T10:09:30Z</time></trkpt><trkpt lat="51.8801098689" lon="-1.8165216129"><ele>198.65</ele><time>2014-03-26T10:09:51Z</time></trkpt><trkpt lat="51.8802343402" lon="-1.8165196851"><ele>199.13</ele><time>2014-03-26T10:10:06Z</time></trkpt><trkpt lat="51.8803358451" lon="-1.8166545499"><ele>199.13</ele><time>2014-03-26T10:10:23Z</time></trkpt><trkpt lat="51.8804488331" lon="-1.8167879060"><ele>198.65</ele><time>2014-03-26T10:10:40Z</time></trkpt><trkpt lat="51.8806559499" lon="-1.8170018960"><ele>200.09</ele><time>2014-03-26T10:11:02Z</time></trkpt><trkpt lat="51.8807661720" lon="-1.8170255329"><ele>200.57</ele><time>2014-03-26T10:11:22Z</time></trkpt><trkpt lat="51.8808409385" lon="-1.8170547858"><ele>202.98</ele><time>2014-03-26T10:11:47Z</time></trkpt><trkpt lat="51.8809778988" lon="-1.8169093598"><ele>204.90</ele><time>2014-03-26T10:12:08Z</time></trkpt><trkpt lat="51.8811685871" lon="-1.8169385288"><ele>206.34</ele><time>2014-03-26T10:12:28Z</time></trkpt><trkpt lat="51.8813370634" lon="-1.8169662729"><ele>207.78</ele><time>2014-03-26T10:12:49Z</time></trkpt><trkpt lat="51.8814878538" lon="-1.8169853836"><ele>208.74</ele><time>2014-03-26T10:13:10Z</time></trkpt><trkpt lat="51.8816177733" lon="-1.8171179853"><ele>208.74</ele><time>2014-03-26T10:13:29Z</time></trkpt><trkpt lat="51.8817778677" lon="-1.8172525987"><ele>208.74</ele><time>2014-03-26T10:13:50Z</time></trkpt><trkpt lat="51.8818869162" lon="-1.8173972704"><ele>209.70</ele><time>2014-03-26T10:14:10Z</time></trkpt><trkpt lat="51.8819717411" lon="-1.8174147047"><ele>208.74</ele><time>2014-03-26T10:14:29Z</time></trkpt><trkpt lat="51.8820417300" lon="-1.8174888007"><ele>209.70</ele><time>2014-03-26T10:14:37Z</time></trkpt><trkpt lat="51.8821706437" lon="-1.8176371604"><ele>210.67</ele><time>2014-03-26T10:14:54Z</time></trkpt><trkpt lat="51.8822993897" lon="-1.8178382423"><ele>210.19</ele><time>2014-03-26T10:15:11Z</time></trkpt><trkpt lat="51.8823547941" lon="-1.8179260008"><ele>210.67</ele><time>2014-03-26T10:15:18Z</time></trkpt><trkpt lat="51.8825057521" lon="-1.8181628734"><ele>211.63</ele><time>2014-03-26T10:15:36Z</time></trkpt><trkpt lat="51.8826412875" lon="-1.8183542322"><ele>211.15</ele><time>2014-03-26T10:15:52Z</time></trkpt><trkpt lat="51.8828009628" lon="-1.8185793702"><ele>211.15</ele><time>2014-03-26T10:16:10Z</time></trkpt><trkpt lat="51.8829477299" lon="-1.8187669571"><ele>211.63</ele><time>2014-03-26T10:16:28Z</time></trkpt><trkpt lat="51.8830995262" lon="-1.8189379480"><ele>211.15</ele><time>2014-03-26T10:16:45Z</time></trkpt><trkpt lat="51.8832090776" lon="-1.8190950248"><ele>211.63</ele><time>2014-03-26T10:17:01Z</time></trkpt><trkpt lat="51.8833280168" lon="-1.8192956876"><ele>212.59</ele><time>2014-03-26T10:17:18Z</time></trkpt><trkpt lat="51.8834330421" lon="-1.8194747251"><ele>212.59</ele><time>2014-03-26T10:17:35Z</time></trkpt><trkpt lat="51.8835208844" lon="-1.8197509926"><ele>214.51</ele><time>2014-03-26T10:17:55Z</time></trkpt><trkpt lat="51.8836009316" lon="-1.8199766334"><ele>214.99</ele><time>2014-03-26T10:18:13Z</time></trkpt><trkpt lat="51.8836976588" lon="-1.8202130031"><ele>216.91</ele><time>2014-03-26T10:18:32Z</time></trkpt><trkpt lat="51.8837730959" lon="-1.8204237241"><ele>217.88</ele><time>2014-03-26T10:18:49Z</time></trkpt><trkpt lat="51.8838531431" lon="-1.8206179328"><ele>219.32</ele><time>2014-03-26T10:19:07Z</time></trkpt><trkpt lat="51.8838290870" lon="-1.8207164202"><ele>218.84</ele><time>2014-03-26T10:19:21Z</time></trkpt><trkpt lat="51.8838360440" lon="-1.8207665440"><ele>218.84</ele><time>2014-03-26T10:19:39Z</time></trkpt><trkpt lat="51.8838264886" lon="-1.8209511135"><ele>218.84</ele><time>2014-03-26T10:19:55Z</time></trkpt><trkpt lat="51.8838223815" lon="-1.8210890796"><ele>218.36</ele><time>2014-03-26T10:20:06Z</time></trkpt><trkpt lat="51.8838075455" lon="-1.8213710468"><ele>219.32</ele><time>2014-03-26T10:20:24Z</time></trkpt><trkpt lat="51.8838346191" lon="-1.8213906605"><ele>220.28</ele><time>2014-03-26T10:20:38Z</time></trkpt><trkpt lat="51.8839412369" lon="-1.8213597313"><ele>220.76</ele><time>2014-03-26T10:20:54Z</time></trkpt><trkpt lat="51.8840376288" lon="-1.8214488309"><ele>220.76</ele><time>2014-03-26T10:21:02Z</time></trkpt><trkpt lat="51.8841067795" lon="-1.8215162214"><ele>221.72</ele><time>2014-03-26T10:21:16Z</time></trkpt><trkpt lat="51.8841321766" lon="-1.8214914110"><ele>222.20</ele><time>2014-03-26T10:21:35Z</time></trkpt><trkpt lat="51.8841330986" lon="-1.8214920815"><ele>220.76</ele><time>2014-03-26T10:21:36Z</time></trkpt><trkpt lat="51.8841543887" lon="-1.8218374997"><ele>222.68</ele><time>2014-03-26T10:21:53Z</time></trkpt><trkpt lat="51.8842269760" lon="-1.8220496457"><ele>222.68</ele><time>2014-03-26T10:22:13Z</time></trkpt><trkpt lat="51.8842018303" lon="-1.8221003562"><ele>222.68</ele><time>2014-03-26T10:22:33Z</time></trkpt><trkpt lat="51.8840998225" lon="-1.8222511467"><ele>222.68</ele><time>2014-03-26T10:22:48Z</time></trkpt><trkpt lat="51.8840745091" lon="-1.8223807309"><ele>223.64</ele><time>2014-03-26T10:23:03Z</time></trkpt><trkpt lat="51.8840549793" lon="-1.8225373887"><ele>224.12</ele><time>2014-03-26T10:23:14Z</time></trkpt><trkpt lat="51.8840284925" lon="-1.8227559887"><ele>223.16</ele><time>2014-03-26T10:23:31Z</time></trkpt><trkpt lat="51.8839729205" lon="-1.8229212798"><ele>223.64</ele><time>2014-03-26T10:23:46Z</time></trkpt><trkpt lat="51.8839039374" lon="-1.8229361158"><ele>223.16</ele><time>2014-03-26T10:24:06Z</time></trkpt><trkpt lat="51.8837765325" lon="-1.8228686415"><ele>221.72</ele><time>2014-03-26T10:24:26Z</time></trkpt><trkpt lat="51.8837050349" lon="-1.8228311744"><ele>220.76</ele><time>2014-03-26T10:24:41Z</time></trkpt><trkpt lat="51.8835991714" lon="-1.8228318449"><ele>219.80</ele><time>2014-03-26T10:24:57Z</time></trkpt><trkpt lat="51.8834847584" lon="-1.8227842357"><ele>218.36</ele><time>2014-03-26T10:25:14Z</time></trkpt><trkpt lat="51.8833061401" lon="-1.8227784522"><ele>215.95</ele><time>2014-03-26T10:25:36Z</time></trkpt><trkpt lat="51.8832182139" lon="-1.8228074536"><ele>214.03</ele><time>2014-03-26T10:25:53Z</time></trkpt><trkpt lat="51.8830820918" lon="-1.8228301685"><ele>212.59</ele><time>2014-03-26T10:26:08Z</time></trkpt><trkpt lat="51.8828437105" lon="-1.8228730839"><ele>211.63</ele><time>2014-03-26T10:26:30Z</time></trkpt><trkpt lat="51.8826363422" lon="-1.8230189290"><ele>211.15</ele><time>2014-03-26T10:26:53Z</time></trkpt><trkpt lat="51.8826046586" lon="-1.8229776900"><ele>210.67</ele><time>2014-03-26T10:27:10Z</time></trkpt><trkpt lat="51.8824562989" lon="-1.8230015785"><ele>210.67</ele><time>2014-03-26T10:27:32Z</time></trkpt><trkpt lat="51.8823065143" lon="-1.8230280653"><ele>211.63</ele><time>2014-03-26T10:27:53Z</time></trkpt><trkpt lat="51.8822805304" lon="-1.8230126426"><ele>211.63</ele><time>2014-03-26T10:28:11Z</time></trkpt><trkpt lat="51.8822146486" lon="-1.8229936156"><ele>213.07</ele><time>2014-03-26T10:28:30Z</time></trkpt><trkpt lat="51.8820585776" lon="-1.8230525404"><ele>213.07</ele><time>2014-03-26T10:28:45Z</time></trkpt><trkpt lat="51.8818703201" lon="-1.8230618443"><ele>215.95</ele><time>2014-03-26T10:29:05Z</time></trkpt><trkpt lat="51.8818754330" lon="-1.8230379559"><ele>214.99</ele><time>2014-03-26T10:29:27Z</time></trkpt><trkpt lat="51.8818628602" lon="-1.8230573181"><ele>214.99</ele><time>2014-03-26T10:29:47Z</time></trkpt><trkpt lat="51.8818445038" lon="-1.8230458349"><ele>215.95</ele><time>2014-03-26T10:30:03Z</time></trkpt><trkpt lat="51.8817901053" lon="-1.8230523728"><ele>215.95</ele><time>2014-03-26T10:30:14Z</time></trkpt><trkpt lat="51.8815791328" lon="-1.8230224494"><ele>217.40</ele><time>2014-03-26T10:30:32Z</time></trkpt><trkpt lat="51.8813385721" lon="-1.8232035823"><ele>217.88</ele><time>2014-03-26T10:30:56Z</time></trkpt><trkpt lat="51.8811042979" lon="-1.8233724777"><ele>219.80</ele><time>2014-03-26T10:31:17Z</time></trkpt><trkpt lat="51.8808787409" lon="-1.8234998826"><ele>220.28</ele><time>2014-03-26T10:31:37Z</time></trkpt><trkpt lat="51.8806569558" lon="-1.8236934207"><ele>222.68</ele><time>2014-03-26T10:32:00Z</time></trkpt><trkpt lat="51.8804386910" lon="-1.8238110188"><ele>222.20</ele><time>2014-03-26T10:32:19Z</time></trkpt><trkpt lat="51.8802568875" lon="-1.8239226658"><ele>224.12</ele><time>2014-03-26T10:32:39Z</time></trkpt><trkpt lat="51.8800724857" lon="-1.8240538426"><ele>223.64</ele><time>2014-03-26T10:32:59Z</time></trkpt><trkpt lat="51.8798783608" lon="-1.8241856899"><ele>225.09</ele><time>2014-03-26T10:33:19Z</time></trkpt><trkpt lat="51.8797199428" lon="-1.8243016955"><ele>226.05</ele><time>2014-03-26T10:33:38Z</time></trkpt><trkpt lat="51.8795362953" lon="-1.8244549166"><ele>225.09</ele><time>2014-03-26T10:33:59Z</time></trkpt><trkpt lat="51.8793013506" lon="-1.8245957326"><ele>227.01</ele><time>2014-03-26T10:34:23Z</time></trkpt><trkpt lat="51.8791017774" lon="-1.8246996682"><ele>227.49</ele><time>2014-03-26T10:34:42Z</time></trkpt><trkpt lat="51.8789355643" lon="-1.8248328567"><ele>227.01</ele><time>2014-03-26T10:35:04Z</time></trkpt><trkpt lat="51.8789439462" lon="-1.8248787895"><ele>227.97</ele><time>2014-03-26T10:35:24Z</time></trkpt><trkpt lat="51.8789083231" lon="-1.8248896860"><ele>227.49</ele><time>2014-03-26T10:35:39Z</time></trkpt><trkpt lat="51.8788856920" lon="-1.8248864170"><ele>227.97</ele><time>2014-03-26T10:35:59Z</time></trkpt><trkpt lat="51.8788778130" lon="-1.8248906080"><ele>227.97</ele><time>2014-03-26T10:36:18Z</time></trkpt><trkpt lat="51.8788541760" lon="-1.8249129876"><ele>228.45</ele><time>2014-03-26T10:36:35Z</time></trkpt><trkpt lat="51.8787961733" lon="-1.8250578269"><ele>227.49</ele><time>2014-03-26T10:36:53Z</time></trkpt><trkpt lat="51.8787952513" lon="-1.8250661250"><ele>227.49</ele><time>2014-03-26T10:37:16Z</time></trkpt><trkpt lat="51.8787943292" lon="-1.8250947911"><ele>227.49</ele><time>2014-03-26T10:37:33Z</time></trkpt><trkpt lat="51.8787994422" lon="-1.8251704797"><ele>227.01</ele><time>2014-03-26T10:37:51Z</time></trkpt><trkpt lat="51.8788078241" lon="-1.8252809532"><ele>227.01</ele><time>2014-03-26T10:38:08Z</time></trkpt><trkpt lat="51.8787866179" lon="-1.8256841227"><ele>227.49</ele><time>2014-03-26T10:38:31Z</time></trkpt><trkpt lat="51.8787606340" lon="-1.8259012979"><ele>226.53</ele><time>2014-03-26T10:38:49Z</time></trkpt><trkpt lat="51.8787053134" lon="-1.8263760488"><ele>226.53</ele><time>2014-03-26T10:39:09Z</time></trkpt><trkpt lat="51.8786928244" lon="-1.8266228121"><ele>227.49</ele><time>2014-03-26T10:39:28Z</time></trkpt><trkpt lat="51.8786588777" lon="-1.8268834054"><ele>227.01</ele><time>2014-03-26T10:39:44Z</time></trkpt><trkpt lat="51.8786193989" lon="-1.8272223696"><ele>227.49</ele><time>2014-03-26T10:40:04Z</time></trkpt><trkpt lat="51.8785975222" lon="-1.8276181631"><ele>227.97</ele><time>2014-03-26T10:40:27Z</time></trkpt><trkpt lat="51.8785788305" lon="-1.8279002979"><ele>228.45</ele><time>2014-03-26T10:40:50Z</time></trkpt><trkpt lat="51.8785589654" lon="-1.8281900603"><ele>228.45</ele><time>2014-03-26T10:41:08Z</time></trkpt><trkpt lat="51.8785206601" lon="-1.8285215646"><ele>229.41</ele><time>2014-03-26T10:41:28Z</time></trkpt><trkpt lat="51.8784999568" lon="-1.8287819903"><ele>228.93</ele><time>2014-03-26T10:41:49Z</time></trkpt><trkpt lat="51.8784700334" lon="-1.8291370478"><ele>228.93</ele><time>2014-03-26T10:42:07Z</time></trkpt><trkpt lat="51.8784443010" lon="-1.8294276483"><ele>229.41</ele><time>2014-03-26T10:42:27Z</time></trkpt><trkpt lat="51.8784124497" lon="-1.8297991343"><ele>229.89</ele><time>2014-03-26T10:42:48Z</time></trkpt><trkpt lat="51.8783831131" lon="-1.8301471509"><ele>229.89</ele><time>2014-03-26T10:43:11Z</time></trkpt><trkpt lat="51.8783774134" lon="-1.8304114323"><ele>230.85</ele><time>2014-03-26T10:43:28Z</time></trkpt><trkpt lat="51.8783291336" lon="-1.8307173718"><ele>230.85</ele><time>2014-03-26T10:43:46Z</time></trkpt><trkpt lat="51.8783132080" lon="-1.8310205452"><ele>231.33</ele><time>2014-03-26T10:44:08Z</time></trkpt><trkpt lat="51.8782795127" lon="-1.8313989043"><ele>231.81</ele><time>2014-03-26T10:44:27Z</time></trkpt><trkpt lat="51.8782935105" lon="-1.8317329232"><ele>231.81</ele><time>2014-03-26T10:44:50Z</time></trkpt><trkpt lat="51.8782920856" lon="-1.8319976237"><ele>232.78</ele><time>2014-03-26T10:45:09Z</time></trkpt><trkpt lat="51.8782279640" lon="-1.8321254477"><ele>233.26</ele><time>2014-03-26T10:45:28Z</time></trkpt><trkpt lat="51.8781650998" lon="-1.8322184868"><ele>233.74</ele><time>2014-03-26T10:45:51Z</time></trkpt><trkpt lat="51.8780784309" lon="-1.8322310597"><ele>233.26</ele><time>2014-03-26T10:46:08Z</time></trkpt><trkpt lat="51.8780862261" lon="-1.8322261982"><ele>233.74</ele><time>2014-03-26T10:46:12Z</time></trkpt><trkpt lat="51.8780625891" lon="-1.8322415370"><ele>233.26</ele><time>2014-03-26T10:46:32Z</time></trkpt><trkpt lat="51.8780589011" lon="-1.8322412856"><ele>233.26</ele><time>2014-03-26T10:46:52Z</time></trkpt><trkpt lat="51.8780688755" lon="-1.8322652578"><ele>232.78</ele><time>2014-03-26T10:47:11Z</time></trkpt><trkpt lat="51.8780670315" lon="-1.8322497513"><ele>233.74</ele><time>2014-03-26T10:47:30Z</time></trkpt><trkpt lat="51.8780699652" lon="-1.8322459795"><ele>233.26</ele><time>2014-03-26T10:47:53Z</time></trkpt><trkpt lat="51.8780857231" lon="-1.8322197441"><ele>233.26</ele><time>2014-03-26T10:48:12Z</time></trkpt><trkpt lat="51.8781006429" lon="-1.8321932573"><ele>233.74</ele><time>2014-03-26T10:48:25Z</time></trkpt><trkpt lat="51.8781215139" lon="-1.8321868870"><ele>233.74</ele><time>2014-03-26T10:48:40Z</time></trkpt><trkpt lat="51.8780652713" lon="-1.8321980350"><ele>232.78</ele><time>2014-03-26T10:48:53Z</time></trkpt><trkpt lat="51.8780674506" lon="-1.8321865518"><ele>233.26</ele><time>2014-03-26T10:49:19Z</time></trkpt><trkpt lat="51.8780670315" lon="-1.8321707100"><ele>233.26</ele><time>2014-03-26T10:49:49Z</time></trkpt><trkpt lat="51.8780681212" lon="-1.8321676925"><ele>232.78</ele><time>2014-03-26T10:50:16Z</time></trkpt><trkpt lat="51.8780704681" lon="-1.8321716320"><ele>233.26</ele><time>2014-03-26T10:50:39Z</time></trkpt><trkpt lat="51.8780754134" lon="-1.8321714643"><ele>233.26</ele><time>2014-03-26T10:51:06Z</time></trkpt><trkpt lat="51.8780783471" lon="-1.8321681116"><ele>232.78</ele><time>2014-03-26T10:51:31Z</time></trkpt><trkpt lat="51.8780763354" lon="-1.8321603164"><ele>232.78</ele><time>2014-03-26T10:51:56Z</time></trkpt><trkpt lat="51.8780732341" lon="-1.8321676087"><ele>233.26</ele><time>2014-03-26T10:52:28Z</time></trkpt><trkpt lat="51.8780726474" lon="-1.8321656808"><ele>232.78</ele><time>2014-03-26T10:52:56Z</time></trkpt><trkpt lat="51.8780757487" lon="-1.8321695365"><ele>232.78</ele><time>2014-03-26T10:53:24Z</time></trkpt><trkpt lat="51.8780782633" lon="-1.8321724702"><ele>232.78</ele><time>2014-03-26T10:53:54Z</time></trkpt><trkpt lat="51.8780890759" lon="-1.8321829475"><ele>232.78</ele><time>2014-03-26T10:54:19Z</time></trkpt><trkpt lat="51.8780897465" lon="-1.8321868870"><ele>232.78</ele><time>2014-03-26T10:54:40Z</time></trkpt><trkpt lat="51.8780850526" lon="-1.8321888149"><ele>232.78</ele><time>2014-03-26T10:55:07Z</time></trkpt><trkpt lat="51.8781241961" lon="-1.8322188221"><ele>232.78</ele><time>2014-03-26T10:55:21Z</time></trkpt><trkpt lat="51.8781300634" lon="-1.8322026450"><ele>233.74</ele><time>2014-03-26T10:55:44Z</time></trkpt><trkpt lat="51.8781179935" lon="-1.8322012201"><ele>233.26</ele><time>2014-03-26T10:56:00Z</time></trkpt><trkpt lat="51.8781177420" lon="-1.8322043214"><ele>233.26</ele><time>2014-03-26T10:56:26Z</time></trkpt><trkpt lat="51.8781135511" lon="-1.8321936764"><ele>233.74</ele><time>2014-03-26T10:56:55Z</time></trkpt><trkpt lat="51.8781123776" lon="-1.8322056625"><ele>233.74</ele><time>2014-03-26T10:57:16Z</time></trkpt><trkpt lat="51.8781214301" lon="-1.8322433811"><ele>233.26</ele><time>2014-03-26T10:57:33Z</time></trkpt><trkpt lat="51.8781245314" lon="-1.8323532678"><ele>233.74</ele><time>2014-03-26T10:57:42Z</time></trkpt><trkpt lat="51.8781329971" lon="-1.8326497357"><ele>233.74</ele><time>2014-03-26T10:58:00Z</time></trkpt><trkpt lat="51.8781126291" lon="-1.8329276796"><ele>234.22</ele><time>2014-03-26T10:58:17Z</time></trkpt><trkpt lat="51.8781146407" lon="-1.8332163524"><ele>233.74</ele><time>2014-03-26T10:58:36Z</time></trkpt><trkpt lat="51.8780965358" lon="-1.8335333560"><ele>234.70</ele><time>2014-03-26T10:58:55Z</time></trkpt><trkpt lat="51.8780954462" lon="-1.8335932028"><ele>233.26</ele><time>2014-03-26T10:58:58Z</time></trkpt><trkpt lat="51.8780749105" lon="-1.8338737451"><ele>234.22</ele><time>2014-03-26T10:59:16Z</time></trkpt><trkpt lat="51.8780572247" lon="-1.8342057522"><ele>234.70</ele><time>2014-03-26T10:59:35Z</time></trkpt><trkpt lat="51.8780380301" lon="-1.8345779926"><ele>234.70</ele><time>2014-03-26T10:59:57Z</time></trkpt><trkpt lat="51.8780339230" lon="-1.8348900508"><ele>235.18</ele><time>2014-03-26T11:00:16Z</time></trkpt><trkpt lat="51.8780259602" lon="-1.8351096567"><ele>234.70</ele><time>2014-03-26T11:00:36Z</time></trkpt><trkpt lat="51.8780122977" lon="-1.8351530749"><ele>234.70</ele><time>2014-03-26T11:00:42Z</time></trkpt><trkpt lat="51.8780107889" lon="-1.8354167696"><ele>235.18</ele><time>2014-03-26T11:01:02Z</time></trkpt><trkpt lat="51.8779977132" lon="-1.8356143311"><ele>235.66</ele><time>2014-03-26T11:01:13Z</time></trkpt><trkpt lat="51.8779628444" lon="-1.8360054307"><ele>235.66</ele><time>2014-03-26T11:01:34Z</time></trkpt><trkpt lat="51.8779125530" lon="-1.8363418803"><ele>235.18</ele><time>2014-03-26T11:01:54Z</time></trkpt><trkpt lat="51.8778836355" lon="-1.8367204908"><ele>235.18</ele><time>2014-03-26T11:02:14Z</time></trkpt><trkpt lat="51.8778559752" lon="-1.8370645680"><ele>235.18</ele><time>2014-03-26T11:02:34Z</time></trkpt><trkpt lat="51.8777336832" lon="-1.8374693301"><ele>235.66</ele><time>2014-03-26T11:02:53Z</time></trkpt><trkpt lat="51.8777019158" lon="-1.8377889320"><ele>234.70</ele><time>2014-03-26T11:03:14Z</time></trkpt><trkpt lat="51.8777702283" lon="-1.8378433306"><ele>235.18</ele><time>2014-03-26T11:03:32Z</time></trkpt><trkpt lat="51.8778691348" lon="-1.8378498685"><ele>235.18</ele><time>2014-03-26T11:03:55Z</time></trkpt><trkpt lat="51.8778112158" lon="-1.8379135709"><ele>235.18</ele><time>2014-03-26T11:04:18Z</time></trkpt><trkpt lat="51.8778002355" lon="-1.8380011618"><ele>235.18</ele><time>2014-03-26T11:04:36Z</time></trkpt><trkpt lat="51.8779265508" lon="-1.8382839672"><ele>235.66</ele><time>2014-03-26T11:04:56Z</time></trkpt><trkpt lat="51.8779079430" lon="-1.8377446756"><ele>236.62</ele><time>2014-03-26T11:05:20Z</time></trkpt><trkpt lat="51.8778749183" lon="-1.8377497047"><ele>236.62</ele><time>2014-03-26T11:05:49Z</time></trkpt><trkpt lat="51.8778212741" lon="-1.8377752695"><ele>236.62</ele><time>2014-03-26T11:06:09Z</time></trkpt><trkpt lat="51.8779056799" lon="-1.8378139101"><ele>236.14</ele><time>2014-03-26T11:06:28Z</time></trkpt><trkpt lat="51.8780483399" lon="-1.8381012417"><ele>236.14</ele><time>2014-03-26T11:06:46Z</time></trkpt><trkpt lat="51.8782302272" lon="-1.8381474260"><ele>235.18</ele><time>2014-03-26T11:07:05Z</time></trkpt><trkpt lat="51.8784215860" lon="-1.8382211868"><ele>235.18</ele><time>2014-03-26T11:07:26Z</time></trkpt><trkpt lat="51.8784803431" lon="-1.8383255415"><ele>234.70</ele><time>2014-03-26T11:07:47Z</time></trkpt><trkpt lat="51.8785220850" lon="-1.8385454826"><ele>233.74</ele><time>2014-03-26T11:07:56Z</time></trkpt><trkpt lat="51.8785352446" lon="-1.8388106022"><ele>232.30</ele><time>2014-03-26T11:08:11Z</time></trkpt><trkpt lat="51.8785867095" lon="-1.8391500693"><ele>228.93</ele><time>2014-03-26T11:08:32Z</time></trkpt><trkpt lat="51.8786147889" lon="-1.8392574415"><ele>227.97</ele><time>2014-03-26T11:08:39Z</time></trkpt><trkpt lat="51.8786483165" lon="-1.8393681664"><ele>227.01</ele><time>2014-03-26T11:08:50Z</time></trkpt><trkpt lat="51.8787026312" lon="-1.8396231439"><ele>226.05</ele><time>2014-03-26T11:09:04Z</time></trkpt><trkpt lat="51.8787268549" lon="-1.8398923706"><ele>224.12</ele><time>2014-03-26T11:09:21Z</time></trkpt><trkpt lat="51.8787557725" lon="-1.8401222024"><ele>222.20</ele><time>2014-03-26T11:09:36Z</time></trkpt><trkpt lat="51.8787686806" lon="-1.8402865715"><ele>222.20</ele><time>2014-03-26T11:09:45Z</time></trkpt><trkpt lat="51.8787851091" lon="-1.8403080292"><ele>221.72</ele><time>2014-03-26T11:09:48Z</time></trkpt><trkpt lat="51.8788690120" lon="-1.8405241147"><ele>220.28</ele><time>2014-03-26T11:10:04Z</time></trkpt><trkpt lat="51.8788885418" lon="-1.8406791799"><ele>219.32</ele><time>2014-03-26T11:10:13Z</time></trkpt><trkpt lat="51.8789805751" lon="-1.8409476522"><ele>217.88</ele><time>2014-03-26T11:10:31Z</time></trkpt><trkpt lat="51.8790402543" lon="-1.8410910666"><ele>217.88</ele><time>2014-03-26T11:10:43Z</time></trkpt><trkpt lat="51.8790984247" lon="-1.8412347324"><ele>218.84</ele><time>2014-03-26T11:11:01Z</time></trkpt><trkpt lat="51.8791818246" lon="-1.8414539192"><ele>217.88</ele><time>2014-03-26T11:11:21Z</time></trkpt><trkpt lat="51.8792057130" lon="-1.8414987624"><ele>217.88</ele><time>2014-03-26T11:11:41Z</time></trkpt><trkpt lat="51.8792166095" lon="-1.8417296838"><ele>219.32</ele><time>2014-03-26T11:11:54Z</time></trkpt><trkpt lat="51.8792418391" lon="-1.8417358026"><ele>219.32</ele><time>2014-03-26T11:12:13Z</time></trkpt><trkpt lat="51.8790861033" lon="-1.8419662211"><ele>221.24</ele><time>2014-03-26T11:12:37Z</time></trkpt><trkpt lat="51.8789477181" lon="-1.8421054445"><ele>223.64</ele><time>2014-03-26T11:12:55Z</time></trkpt><trkpt lat="51.8788393401" lon="-1.8422680534"><ele>225.09</ele><time>2014-03-26T11:13:08Z</time></trkpt><trkpt lat="51.8787140306" lon="-1.8423548061"><ele>226.05</ele><time>2014-03-26T11:13:22Z</time></trkpt><trkpt lat="51.8786288705" lon="-1.8423444126"><ele>227.01</ele><time>2014-03-26T11:13:42Z</time></trkpt><trkpt lat="51.8785961810" lon="-1.8423434068"><ele>226.05</ele><time>2014-03-26T11:14:00Z</time></trkpt><trkpt lat="51.8784323148" lon="-1.8422667962"><ele>225.09</ele><time>2014-03-26T11:14:20Z</time></trkpt><trkpt lat="51.8783094361" lon="-1.8422631081"><ele>225.57</ele><time>2014-03-26T11:14:29Z</time></trkpt><trkpt lat="51.8782131281" lon="-1.8422903493"><ele>226.53</ele><time>2014-03-26T11:14:45Z</time></trkpt><trkpt lat="51.8781884853" lon="-1.8423363660"><ele>226.05</ele><time>2014-03-26T11:15:03Z</time></trkpt><trkpt lat="51.8782261200" lon="-1.8423342705"><ele>226.05</ele><time>2014-03-26T11:15:22Z</time></trkpt><trkpt lat="51.8779907562" lon="-1.8423441611"><ele>224.61</ele><time>2014-03-26T11:15:41Z</time></trkpt><trkpt lat="51.8778362777" lon="-1.8425870687"><ele>226.05</ele><time>2014-03-26T11:16:02Z</time></trkpt><trkpt lat="51.8778391276" lon="-1.8428221811"><ele>227.01</ele><time>2014-03-26T11:16:21Z</time></trkpt><trkpt lat="51.8778232858" lon="-1.8429049943"><ele>227.01</ele><time>2014-03-26T11:16:39Z</time></trkpt><trkpt lat="51.8778677098" lon="-1.8429173995"><ele>227.49</ele><time>2014-03-26T11:16:52Z</time></trkpt><trkpt lat="51.8780531175" lon="-1.8430832773"><ele>228.93</ele><time>2014-03-26T11:17:10Z</time></trkpt><trkpt lat="51.8782006390" lon="-1.8432963453"><ele>229.89</ele><time>2014-03-26T11:17:28Z</time></trkpt><trkpt lat="51.8782552052" lon="-1.8434016220"><ele>228.93</ele><time>2014-03-26T11:17:50Z</time></trkpt><trkpt lat="51.8783577997" lon="-1.8434376642"><ele>231.33</ele><time>2014-03-26T11:18:08Z</time></trkpt><trkpt lat="51.8783836160" lon="-1.8434839323"><ele>231.33</ele><time>2014-03-26T11:18:34Z</time></trkpt><trkpt lat="51.8785235938" lon="-1.8437084835"><ele>232.78</ele><time>2014-03-26T11:18:53Z</time></trkpt><trkpt lat="51.8786786590" lon="-1.8438855931"><ele>234.22</ele><time>2014-03-26T11:19:13Z</time></trkpt><trkpt lat="51.8788156193" lon="-1.8441383913"><ele>234.22</ele><time>2014-03-26T11:19:34Z</time></trkpt><trkpt lat="51.8789053056" lon="-1.8442916125"><ele>234.22</ele><time>2014-03-26T11:19:52Z</time></trkpt><trkpt lat="51.8790058885" lon="-1.8443817180"><ele>234.70</ele><time>2014-03-26T11:20:12Z</time></trkpt><trkpt lat="51.8790605385" lon="-1.8444299139"><ele>235.18</ele><time>2014-03-26T11:20:30Z</time></trkpt><trkpt lat="51.8791661505" lon="-1.8444147427"><ele>233.74</ele><time>2014-03-26T11:20:50Z</time></trkpt><trkpt lat="51.8793345429" lon="-1.8442740943"><ele>233.74</ele><time>2014-03-26T11:21:15Z</time></trkpt><trkpt lat="51.8794685695" lon="-1.8442836497"><ele>232.30</ele><time>2014-03-26T11:21:26Z</time></trkpt><trkpt lat="51.8795362115" lon="-1.8442701548"><ele>231.33</ele><time>2014-03-26T11:21:34Z</time></trkpt><trkpt lat="51.8795652967" lon="-1.8442611862"><ele>231.33</ele><time>2014-03-26T11:21:37Z</time></trkpt><trkpt lat="51.8797520455" lon="-1.8442482781"><ele>229.41</ele><time>2014-03-26T11:21:57Z</time></trkpt><trkpt lat="51.8799693882" lon="-1.8442093860"><ele>227.97</ele><time>2014-03-26T11:22:21Z</time></trkpt><trkpt lat="51.8800708093" lon="-1.8442748487"><ele>227.01</ele><time>2014-03-26T11:22:40Z</time></trkpt><trkpt lat="51.8801247049" lon="-1.8442788720"><ele>227.01</ele><time>2014-03-26T11:23:05Z</time></trkpt><trkpt lat="51.8800584041" lon="-1.8442299217"><ele>227.01</ele><time>2014-03-26T11:23:26Z</time></trkpt><trkpt lat="51.8800404668" lon="-1.8441419955"><ele>227.01</ele><time>2014-03-26T11:23:53Z</time></trkpt><trkpt lat="51.8800046761" lon="-1.8440705817"><ele>227.01</ele><time>2014-03-26T11:24:18Z</time></trkpt><trkpt lat="51.8799718190" lon="-1.8440715875"><ele>226.53</ele><time>2014-03-26T11:24:39Z</time></trkpt><trkpt lat="51.8800010718" lon="-1.8440869264"><ele>226.53</ele><time>2014-03-26T11:25:04Z</time></trkpt><trkpt lat="51.8800118007" lon="-1.8440711685"><ele>226.53</ele><time>2014-03-26T11:25:30Z</time></trkpt><trkpt lat="51.8801308237" lon="-1.8441637047"><ele>226.05</ele><time>2014-03-26T11:25:47Z</time></trkpt><trkpt lat="51.8801678717" lon="-1.8442008365"><ele>226.53</ele><time>2014-03-26T11:26:08Z</time></trkpt><trkpt lat="51.8802913371" lon="-1.8439171929"><ele>226.05</ele><time>2014-03-26T11:26:30Z</time></trkpt><trkpt lat="51.8803571351" lon="-1.8436722737"><ele>225.57</ele><time>2014-03-26T11:26:49Z</time></trkpt><trkpt lat="51.8804762419" lon="-1.8433940783"><ele>225.09</ele><time>2014-03-26T11:27:11Z</time></trkpt><trkpt lat="51.8805546965" lon="-1.8432900589"><ele>225.09</ele><time>2014-03-26T11:27:32Z</time></trkpt><trkpt lat="51.8805665988" lon="-1.8433002848"><ele>225.57</ele><time>2014-03-26T11:27:55Z</time></trkpt><trkpt lat="51.8806074187" lon="-1.8433027156"><ele>225.57</ele><time>2014-03-26T11:28:20Z</time></trkpt><trkpt lat="51.8805740587" lon="-1.8432339001"><ele>225.57</ele><time>2014-03-26T11:28:40Z</time></trkpt><trkpt lat="51.8805599771" lon="-1.8432158791"><ele>226.05</ele><time>2014-03-26T11:29:07Z</time></trkpt><trkpt lat="51.8806082569" lon="-1.8431437109"><ele>225.57</ele><time>2014-03-26T11:29:23Z</time></trkpt><trkpt lat="51.8806234282" lon="-1.8431001250"><ele>226.05</ele><time>2014-03-26T11:29:44Z</time></trkpt><trkpt lat="51.8807959277" lon="-1.8430446368"><ele>226.05</ele><time>2014-03-26T11:30:05Z</time></trkpt><trkpt lat="51.8810547609" lon="-1.8429505080"><ele>226.05</ele><time>2014-03-26T11:30:24Z</time></trkpt><trkpt lat="51.8812295236" lon="-1.8428154755"><ele>227.49</ele><time>2014-03-26T11:30:44Z</time></trkpt><trkpt lat="51.8814405799" lon="-1.8425758369"><ele>229.41</ele><time>2014-03-26T11:31:05Z</time></trkpt><trkpt lat="51.8815253209" lon="-1.8422953784"><ele>231.81</ele><time>2014-03-26T11:31:25Z</time></trkpt><trkpt lat="51.8815405760" lon="-1.8421998248"><ele>231.81</ele><time>2014-03-26T11:31:44Z</time></trkpt><trkpt lat="51.8815098144" lon="-1.8421630282"><ele>231.81</ele><time>2014-03-26T11:31:53Z</time></trkpt><trkpt lat="51.8814945593" lon="-1.8420901056"><ele>232.30</ele><time>2014-03-26T11:32:12Z</time></trkpt><trkpt lat="51.8815870117" lon="-1.8420824781"><ele>232.30</ele><time>2014-03-26T11:32:32Z</time></trkpt><trkpt lat="51.8816721719" lon="-1.8420905247"><ele>231.81</ele><time>2014-03-26T11:32:39Z</time></trkpt><trkpt lat="51.8817269057" lon="-1.8419721723"><ele>233.74</ele><time>2014-03-26T11:32:58Z</time></trkpt><trkpt lat="51.8817118183" lon="-1.8418813962"><ele>235.18</ele><time>2014-03-26T11:33:18Z</time></trkpt><trkpt lat="51.8817539793" lon="-1.8418645486"><ele>235.66</ele><time>2014-03-26T11:33:31Z</time></trkpt><trkpt lat="51.8818870001" lon="-1.8418003432"><ele>237.10</ele><time>2014-03-26T11:33:50Z</time></trkpt><trkpt lat="51.8820725754" lon="-1.8418235611"><ele>237.10</ele><time>2014-03-26T11:34:11Z</time></trkpt><trkpt lat="51.8822446559" lon="-1.8417774606"><ele>238.54</ele><time>2014-03-26T11:34:32Z</time></trkpt><trkpt lat="51.8824270461" lon="-1.8417259958"><ele>238.54</ele><time>2014-03-26T11:34:54Z</time></trkpt><trkpt lat="51.8826005515" lon="-1.8417124171"><ele>239.51</ele><time>2014-03-26T11:35:15Z</time></trkpt><trkpt lat="51.8826994579" lon="-1.8416880257"><ele>239.99</ele><time>2014-03-26T11:35:34Z</time></trkpt><trkpt lat="51.8827790022" lon="-1.8416851759"><ele>240.47</ele><time>2014-03-26T11:35:51Z</time></trkpt><trkpt lat="51.8828989472" lon="-1.8416607846"><ele>240.95</ele><time>2014-03-26T11:36:13Z</time></trkpt><trkpt lat="51.8829820119" lon="-1.8414726108"><ele>240.95</ele><time>2014-03-26T11:36:34Z</time></trkpt><trkpt lat="51.8831185531" lon="-1.8412945792"><ele>242.87</ele><time>2014-03-26T11:36:52Z</time></trkpt><trkpt lat="51.8831336405" lon="-1.8410188984"><ele>244.31</ele><time>2014-03-26T11:37:13Z</time></trkpt><trkpt lat="51.8831193075" lon="-1.8407329079"><ele>245.75</ele><time>2014-03-26T11:37:33Z</time></trkpt><trkpt lat="51.8831480574" lon="-1.8404045049"><ele>246.72</ele><time>2014-03-26T11:37:51Z</time></trkpt><trkpt lat="51.8832074851" lon="-1.8400760181"><ele>247.68</ele><time>2014-03-26T11:38:07Z</time></trkpt><trkpt lat="51.8832319602" lon="-1.8398994114"><ele>248.16</ele><time>2014-03-26T11:38:17Z</time></trkpt><trkpt lat="51.8832422700" lon="-1.8397463579"><ele>247.68</ele><time>2014-03-26T11:38:27Z</time></trkpt><trkpt lat="51.8832452875" lon="-1.8396541569"><ele>247.68</ele><time>2014-03-26T11:38:40Z</time></trkpt><trkpt lat="51.8832713552" lon="-1.8395029474"><ele>246.72</ele><time>2014-03-26T11:38:58Z</time></trkpt><trkpt lat="51.8833187968" lon="-1.8392730318"><ele>246.72</ele><time>2014-03-26T11:39:18Z</time></trkpt><trkpt lat="51.8833864387" lon="-1.8389053177"><ele>246.23</ele><time>2014-03-26T11:39:38Z</time></trkpt><trkpt lat="51.8834389932" lon="-1.8384964485"><ele>245.27</ele><time>2014-03-26T11:40:00Z</time></trkpt><trkpt lat="51.8834579363" lon="-1.8381129764"><ele>245.27</ele><time>2014-03-26T11:40:23Z</time></trkpt><trkpt lat="51.8834700063" lon="-1.8377535604"><ele>244.31</ele><time>2014-03-26T11:40:44Z</time></trkpt><trkpt lat="51.8834659830" lon="-1.8377263192"><ele>243.83</ele><time>2014-03-26T11:40:46Z</time></trkpt><trkpt lat="51.8834110815" lon="-1.8374525663"><ele>242.87</ele><time>2014-03-26T11:41:02Z</time></trkpt><trkpt lat="51.8833227362" lon="-1.8371767178"><ele>241.91</ele><time>2014-03-26T11:41:21Z</time></trkpt><trkpt lat="51.8832338881" lon="-1.8369395100"><ele>241.43</ele><time>2014-03-26T11:41:38Z</time></trkpt><trkpt lat="51.8831228279" lon="-1.8366437126"><ele>240.47</ele><time>2014-03-26T11:41:57Z</time></trkpt><trkpt lat="51.8829872087" lon="-1.8363437243"><ele>239.51</ele><time>2014-03-26T11:42:17Z</time></trkpt><trkpt lat="51.8828845304" lon="-1.8360867351"><ele>239.02</ele><time>2014-03-26T11:42:36Z</time></trkpt><trkpt lat="51.8827823550" lon="-1.8357864115"><ele>237.58</ele><time>2014-03-26T11:42:57Z</time></trkpt><trkpt lat="51.8826581351" lon="-1.8354953080"><ele>236.62</ele><time>2014-03-26T11:43:16Z</time></trkpt><trkpt lat="51.8825636711" lon="-1.8352175318"><ele>236.62</ele><time>2014-03-26T11:43:37Z</time></trkpt><trkpt lat="51.8824305665" lon="-1.8349422701"><ele>235.66</ele><time>2014-03-26T11:44:00Z</time></trkpt><trkpt lat="51.8822803628" lon="-1.8344401941"><ele>235.66</ele><time>2014-03-26T11:44:26Z</time></trkpt><trkpt lat="51.8821366131" lon="-1.8340690434"><ele>234.22</ele><time>2014-03-26T11:44:50Z</time></trkpt><trkpt lat="51.8819969706" lon="-1.8337168358"><ele>233.74</ele><time>2014-03-26T11:45:14Z</time></trkpt><trkpt lat="51.8819833081" lon="-1.8337007426"><ele>233.26</ele><time>2014-03-26T11:45:36Z</time></trkpt><trkpt lat="51.8819859065" lon="-1.8336727470"><ele>233.26</ele><time>2014-03-26T11:45:55Z</time></trkpt><trkpt lat="51.8819726631" lon="-1.8336459249"><ele>233.26</ele><time>2014-03-26T11:45:57Z</time></trkpt><trkpt lat="51.8818033487" lon="-1.8331723474"><ele>232.78</ele><time>2014-03-26T11:46:20Z</time></trkpt><trkpt lat="51.8816948868" lon="-1.8328166194"><ele>231.81</ele><time>2014-03-26T11:46:42Z</time></trkpt><trkpt lat="51.8816588446" lon="-1.8326639850"><ele>231.33</ele><time>2014-03-26T11:46:52Z</time></trkpt><trkpt lat="51.8815729301" lon="-1.8323847000"><ele>230.37</ele><time>2014-03-26T11:47:08Z</time></trkpt><trkpt lat="51.8815397378" lon="-1.8322996236"><ele>230.37</ele><time>2014-03-26T11:47:19Z</time></trkpt><trkpt lat="51.8814455252" lon="-1.8320969492"><ele>228.93</ele><time>2014-03-26T11:47:34Z</time></trkpt><trkpt lat="51.8813461158" lon="-1.8318099529"><ele>228.93</ele><time>2014-03-26T11:47:51Z</time></trkpt><trkpt lat="51.8812461197" lon="-1.8315324280"><ele>228.93</ele><time>2014-03-26T11:48:08Z</time></trkpt><trkpt lat="51.8811565172" lon="-1.8312663864"><ele>229.89</ele><time>2014-03-26T11:48:24Z</time></trkpt><trkpt lat="51.8810576107" lon="-1.8309891969"><ele>229.89</ele><time>2014-03-26T11:48:41Z</time></trkpt><trkpt lat="51.8809600454" lon="-1.8307658192"><ele>229.41</ele><time>2014-03-26T11:48:55Z</time></trkpt><trkpt lat="51.8808558583" lon="-1.8305571098"><ele>229.41</ele><time>2014-03-26T11:49:13Z</time></trkpt><trkpt lat="51.8807904795" lon="-1.8303939980"><ele>229.41</ele><time>2014-03-26T11:49:28Z</time></trkpt><trkpt lat="51.8807095941" lon="-1.8301502522"><ele>229.89</ele><time>2014-03-26T11:49:44Z</time></trkpt><trkpt lat="51.8805945944" lon="-1.8298400380"><ele>229.89</ele><time>2014-03-26T11:50:05Z</time></trkpt><trkpt lat="51.8804641720" lon="-1.8294583261"><ele>228.93</ele><time>2014-03-26T11:50:27Z</time></trkpt><trkpt lat="51.8803469930" lon="-1.8291255645"><ele>228.93</ele><time>2014-03-26T11:50:48Z</time></trkpt><trkpt lat="51.8802565522" lon="-1.8288365565"><ele>229.89</ele><time>2014-03-26T11:51:07Z</time></trkpt><trkpt lat="51.8802015670" lon="-1.8286663201"><ele>229.89</ele><time>2014-03-26T11:51:17Z</time></trkpt><trkpt lat="51.8801152334" lon="-1.8284413498"><ele>229.89</ele><time>2014-03-26T11:51:32Z</time></trkpt><trkpt lat="51.8799846433" lon="-1.8280788325"><ele>229.41</ele><time>2014-03-26T11:51:55Z</time></trkpt><trkpt lat="51.8798505329" lon="-1.8277646787"><ele>228.93</ele><time>2014-03-26T11:52:17Z</time></trkpt><trkpt lat="51.8797254749" lon="-1.8274023291"><ele>228.93</ele><time>2014-03-26T11:52:40Z</time></trkpt><trkpt lat="51.8796066195" lon="-1.8270942941"><ele>228.93</ele><time>2014-03-26T11:53:02Z</time></trkpt><trkpt lat="51.8794777058" lon="-1.8267526478"><ele>227.97</ele><time>2014-03-26T11:53:26Z</time></trkpt><trkpt lat="51.8793596886" lon="-1.8263932317"><ele>228.45</ele><time>2014-03-26T11:53:50Z</time></trkpt><trkpt lat="51.8792927172" lon="-1.8261804152"><ele>228.45</ele><time>2014-03-26T11:54:05Z</time></trkpt><trkpt lat="51.8791694194" lon="-1.8258857075"><ele>228.45</ele><time>2014-03-26T11:54:26Z</time></trkpt><trkpt lat="51.8790498096" lon="-1.8254940212"><ele>228.45</ele><time>2014-03-26T11:54:48Z</time></trkpt><trkpt lat="51.8789352290" lon="-1.8250380456"><ele>228.45</ele><time>2014-03-26T11:55:10Z</time></trkpt><trkpt lat="51.8788435310" lon="-1.8247532286"><ele>228.45</ele><time>2014-03-26T11:55:29Z</time></trkpt><trkpt lat="51.8787665013" lon="-1.8244946469"><ele>229.41</ele><time>2014-03-26T11:55:46Z</time></trkpt><trkpt lat="51.8786610570" lon="-1.8241654057"><ele>228.45</ele><time>2014-03-26T11:56:06Z</time></trkpt><trkpt lat="51.8785339035" lon="-1.8238028046"><ele>228.45</ele><time>2014-03-26T11:56:28Z</time></trkpt><trkpt lat="51.8783882260" lon="-1.8234490883"><ele>227.97</ele><time>2014-03-26T11:56:51Z</time></trkpt><trkpt lat="51.8782968633" lon="-1.8232786842"><ele>227.97</ele><time>2014-03-26T11:57:11Z</time></trkpt><trkpt lat="51.8781915028" lon="-1.8230078649"><ele>228.45</ele><time>2014-03-26T11:57:28Z</time></trkpt><trkpt lat="51.8780855555" lon="-1.8227125704"><ele>227.49</ele><time>2014-03-26T11:57:47Z</time></trkpt><trkpt lat="51.8780454062" lon="-1.8226238899"><ele>227.97</ele><time>2014-03-26T11:57:54Z</time></trkpt><trkpt lat="51.8779252097" lon="-1.8222980853"><ele>226.05</ele><time>2014-03-26T11:58:16Z</time></trkpt><trkpt lat="51.8777345214" lon="-1.8218987714"><ele>225.57</ele><time>2014-03-26T11:58:42Z</time></trkpt><trkpt lat="51.8776326813" lon="-1.8216959294"><ele>225.09</ele><time>2014-03-26T11:59:01Z</time></trkpt><trkpt lat="51.8775258958" lon="-1.8215386849"><ele>224.12</ele><time>2014-03-26T11:59:18Z</time></trkpt><trkpt lat="51.8774168473" lon="-1.8213258684"><ele>223.64</ele><time>2014-03-26T11:59:36Z</time></trkpt><trkpt lat="51.8774044421" lon="-1.8212961964"><ele>223.64</ele><time>2014-03-26T11:59:38Z</time></trkpt><trkpt lat="51.8773352914" lon="-1.8210066017"><ele>223.64</ele><time>2014-03-26T11:59:55Z</time></trkpt><trkpt lat="51.8773134146" lon="-1.8207527138"><ele>222.20</ele><time>2014-03-26T12:00:15Z</time></trkpt><trkpt lat="51.8773167673" lon="-1.8206791207"><ele>223.16</ele><time>2014-03-26T12:00:33Z</time></trkpt><trkpt lat="51.8772790488" lon="-1.8204701599"><ele>222.20</ele><time>2014-03-26T12:00:47Z</time></trkpt><trkpt lat="51.8772412464" lon="-1.8201979995"><ele>221.24</ele><time>2014-03-26T12:01:04Z</time></trkpt><trkpt lat="51.8772050366" lon="-1.8199023698"><ele>221.24</ele><time>2014-03-26T12:01:20Z</time></trkpt><trkpt lat="51.8771467824" lon="-1.8195506651"><ele>221.24</ele><time>2014-03-26T12:01:39Z</time></trkpt><trkpt lat="51.8770965748" lon="-1.8191705458"><ele>220.28</ele><time>2014-03-26T12:02:01Z</time></trkpt><trkpt lat="51.8770598620" lon="-1.8188271392"><ele>219.80</ele><time>2014-03-26T12:02:22Z</time></trkpt><trkpt lat="51.8770094868" lon="-1.8185065314"><ele>219.80</ele><time>2014-03-26T12:02:42Z</time></trkpt><trkpt lat="51.8769837543" lon="-1.8181636278"><ele>218.84</ele><time>2014-03-26T12:03:02Z</time></trkpt><trkpt lat="51.8769268412" lon="-1.8178403378"><ele>219.32</ele><time>2014-03-26T12:03:21Z</time></trkpt><trkpt lat="51.8769296911" lon="-1.8175952509"><ele>219.32</ele><time>2014-03-26T12:03:35Z</time></trkpt><trkpt lat="51.8769342173" lon="-1.8173175585"><ele>218.84</ele><time>2014-03-26T12:03:52Z</time></trkpt><trkpt lat="51.8769674096" lon="-1.8170303944"><ele>219.32</ele><time>2014-03-26T12:04:11Z</time></trkpt><trkpt lat="51.8769876938" lon="-1.8167464156"><ele>219.32</ele><time>2014-03-26T12:04:29Z</time></trkpt><trkpt lat="51.8770393264" lon="-1.8164488580"><ele>218.36</ele><time>2014-03-26T12:04:47Z</time></trkpt><trkpt lat="51.8770622928" lon="-1.8161414936"><ele>218.36</ele><time>2014-03-26T12:05:09Z</time></trkpt><trkpt lat="51.8770542461" lon="-1.8158586044"><ele>218.36</ele><time>2014-03-26T12:05:28Z</time></trkpt><trkpt lat="51.8770062178" lon="-1.8155917246"><ele>217.40</ele><time>2014-03-26T12:05:48Z</time></trkpt><trkpt lat="51.8769134302" lon="-1.8153548520"><ele>216.91</ele><time>2014-03-26T12:06:08Z</time></trkpt><trkpt lat="51.8768768851" lon="-1.8153168820"><ele>216.43</ele><time>2014-03-26T12:06:13Z</time></trkpt><trkpt lat="51.8767337222" lon="-1.8149780016"><ele>216.43</ele><time>2014-03-26T12:06:34Z</time></trkpt><trkpt lat="51.8766495679" lon="-1.8147734832"><ele>215.95</ele><time>2014-03-26T12:06:55Z</time></trkpt><trkpt lat="51.8766095862" lon="-1.8144917674"><ele>215.47</ele><time>2014-03-26T12:07:10Z</time></trkpt><trkpt lat="51.8765012920" lon="-1.8142707366"><ele>214.51</ele><time>2014-03-26T12:07:27Z</time></trkpt><trkpt lat="51.8763913214" lon="-1.8141859118"><ele>213.07</ele><time>2014-03-26T12:07:38Z</time></trkpt><trkpt lat="51.8763603922" lon="-1.8141486961"><ele>214.03</ele><time>2014-03-26T12:07:41Z</time></trkpt><trkpt lat="51.8761749007" lon="-1.8139449321"><ele>214.03</ele><time>2014-03-26T12:08:01Z</time></trkpt><trkpt lat="51.8761008047" lon="-1.8140238896"><ele>213.55</ele><time>2014-03-26T12:08:21Z</time></trkpt><trkpt lat="51.8760490883" lon="-1.8142232951"><ele>214.03</ele><time>2014-03-26T12:08:44Z</time></trkpt><trkpt lat="51.8760430533" lon="-1.8144837208"><ele>215.47</ele><time>2014-03-26T12:09:03Z</time></trkpt><trkpt lat="51.8761361763" lon="-1.8146506883"><ele>214.99</ele><time>2014-03-26T12:09:23Z</time></trkpt><trkpt lat="51.8761459831" lon="-1.8146889936"><ele>215.95</ele><time>2014-03-26T12:09:36Z</time></trkpt></trkseg></trk></gpx>